createdAt,value
2022-09-21T00:00:30.904Z,46.25
2022-09-21T00:05:25.531Z,45.74
2022-09-21T00:10:20.836Z,47.06
2022-09-21T00:15:14.547Z,46.73
2022-09-21T00:20:08.117Z,46.45
2022-09-21T00:25:04.225Z,46.09
2022-09-21T00:29:58.677Z,46.06
2022-09-21T00:34:52.722Z,46.13
2022-09-21T00:39:46.863Z,46.02
2022-09-21T00:44:41.032Z,45.68
2022-09-21T00:49:34.639Z,45.72
2022-09-21T00:54:33.959Z,45.62
2022-09-21T00:59:30.348Z,45.45
2022-09-21T01:04:24.785Z,45.74
2022-09-21T01:09:19.836Z,45.64
2022-09-21T01:14:31.728Z,45.50
2022-09-21T01:19:46.846Z,45.57
2022-09-21T01:24:50.950Z,45.20
2022-09-21T01:30:01.419Z,45.01
2022-09-21T01:35:08.575Z,45.04
2022-09-21T01:40:07.150Z,45.17
2022-09-21T01:45:04.434Z,44.69
2022-09-21T01:50:06.387Z,44.63
2022-09-21T01:55:29.363Z,44.67
2022-09-21T02:00:25.653Z,44.57
2022-09-21T02:05:21.266Z,44.49
2022-09-21T02:10:22.528Z,44.74
2022-09-21T02:15:16.935Z,44.46
2022-09-21T02:20:09.626Z,44.70
2022-09-21T02:25:11.247Z,44.33
2022-09-21T02:30:19.712Z,44.39
2022-09-21T02:35:39.306Z,44.36
2022-09-21T02:40:51.935Z,44.23
2022-09-21T02:45:53.423Z,44.32
2022-09-21T02:51:14.700Z,44.31
2022-09-21T02:56:12.439Z,44.14
2022-09-21T03:01:08.937Z,43.90
2022-09-21T03:06:03.280Z,44.07
2022-09-21T03:10:58.262Z,44.11
2022-09-21T03:15:59.511Z,44.09
2022-09-21T03:20:52.882Z,44.14
2022-09-21T03:25:46.781Z,43.91
2022-09-21T03:30:40.527Z,44.08
2022-09-21T03:35:36.723Z,43.85
2022-09-21T03:40:30.017Z,43.88
2022-09-21T03:45:24.559Z,44.11
2022-09-21T03:50:22.516Z,43.87
2022-09-21T03:55:16.592Z,43.76
2022-09-21T04:00:12.139Z,43.94
2022-09-21T04:05:07.530Z,43.84
2022-09-21T04:10:05.775Z,43.63
2022-09-21T04:14:59.182Z,43.60
2022-09-21T04:19:52.079Z,43.63
2022-09-21T04:24:45.460Z,43.93
2022-09-21T04:29:39.378Z,43.90
2022-09-21T04:34:33.461Z,43.56
2022-09-21T04:39:27.141Z,44.02
2022-09-21T04:44:20.050Z,43.90
2022-09-21T04:49:14.035Z,43.80
2022-09-21T04:54:08.279Z,43.63
2022-09-21T04:59:02.261Z,43.53
2022-09-21T05:03:55.632Z,43.72
2022-09-21T05:09:10.753Z,43.75
2022-09-21T05:14:04.678Z,43.74
2022-09-21T05:18:58.515Z,43.75
2022-09-21T05:23:52.433Z,43.48
2022-09-21T05:28:47.829Z,43.44
2022-09-21T05:33:49.041Z,43.08
2022-09-21T05:38:44.500Z,43.36
2022-09-21T05:43:38.619Z,43.31
2022-09-21T05:48:58.253Z,42.73
2022-09-21T05:54:25.591Z,42.87
2022-09-21T05:59:21.126Z,42.60
2022-09-21T06:04:16.259Z,42.31
2022-09-21T06:09:10.133Z,42.70
2022-09-21T06:14:04.031Z,42.48
2022-09-21T06:18:58.075Z,42.23
2022-09-21T06:23:51.131Z,42.29
2022-09-21T06:28:45.430Z,42.07
2022-09-21T06:33:39.149Z,41.90
2022-09-21T06:38:32.369Z,41.93
2022-09-21T06:43:25.627Z,41.99
2022-09-21T06:48:19.477Z,42.09
2022-09-21T06:53:14.771Z,42.35
2022-09-21T06:58:08.536Z,42.09
2022-09-21T07:08:00.476Z,42.79
2022-09-21T07:12:54.161Z,43.06
2022-09-21T07:17:52.334Z,42.80
2022-09-21T07:22:46.579Z,42.86
2022-09-21T07:27:39.893Z,42.93
2022-09-21T07:32:34.103Z,42.64
2022-09-21T07:37:28.180Z,42.82
2022-09-21T07:42:23.319Z,43.20
2022-09-21T07:47:16.886Z,42.67
2022-09-21T07:52:11.201Z,42.70
2022-09-21T07:57:23.768Z,43.29
2022-09-21T08:02:16.509Z,43.29
2022-09-21T08:07:10.701Z,43.08
2022-09-21T08:12:05.304Z,42.91
2022-09-21T08:16:59.481Z,42.78
2022-09-21T08:21:57.217Z,42.75
2022-09-21T08:26:52.861Z,42.48
2022-09-21T08:31:47.252Z,43.01
2022-09-21T08:36:41.465Z,42.23
2022-09-21T08:41:34.289Z,42.38
2022-09-21T08:46:33.746Z,42.10
2022-09-21T08:51:34.008Z,41.96
2022-09-21T08:56:47.154Z,42.51
2022-09-21T09:02:26.122Z,42.32
2022-09-21T09:07:41.561Z,41.98
2022-09-21T09:12:45.103Z,42.04
2022-09-21T09:17:53.181Z,42.15
2022-09-21T09:22:54.322Z,42.40
2022-09-21T09:28:00.905Z,42.13
2022-09-21T09:33:01.199Z,42.26
2022-09-21T09:38:19.858Z,42.57
2022-09-21T09:43:44.525Z,42.64
2022-09-21T09:48:53.933Z,42.54
2022-09-21T09:53:47.756Z,42.57
2022-09-21T09:58:50.414Z,42.59
2022-09-21T10:03:44.732Z,42.54
2022-09-21T10:08:37.876Z,42.45
2022-09-21T10:13:40.087Z,42.28
2022-09-21T10:18:49.365Z,42.38
2022-09-21T10:23:53.074Z,42.20
2022-09-21T10:28:57.106Z,42.56
2022-09-21T10:34:06.763Z,42.62
2022-09-21T10:39:28.530Z,42.48
2022-09-21T10:44:24.464Z,42.23
2022-09-21T10:49:29.573Z,42.20
2022-09-21T10:54:34.607Z,42.30
2022-09-21T10:59:29.776Z,42.53
2022-09-21T11:04:48.502Z,42.39
2022-09-21T11:09:55.411Z,42.65
2022-09-21T11:15:05.363Z,42.58
2022-09-21T11:20:04.240Z,42.91
2022-09-21T11:25:17.998Z,42.53
2022-09-21T11:30:13.010Z,42.54
2022-09-21T11:35:33.093Z,42.46
2022-09-21T11:40:55.298Z,42.42
2022-09-21T11:46:23.986Z,42.71
2022-09-21T11:51:42.676Z,42.70
2022-09-21T11:56:56.834Z,43.02
2022-09-21T12:01:57.165Z,42.90
2022-09-21T12:06:50.362Z,42.86
2022-09-21T12:11:52.763Z,42.92
2022-09-21T12:17:21.705Z,42.63
2022-09-21T12:22:43.694Z,42.53
2022-09-21T12:27:44.852Z,42.53
2022-09-21T12:32:39.255Z,42.45
2022-09-21T12:37:45.542Z,42.37
2022-09-21T12:42:50.716Z,42.21
2022-09-21T12:48:11.603Z,41.89
2022-09-21T12:53:04.977Z,42.18
2022-09-21T12:58:30.835Z,41.93
2022-09-21T13:03:30.160Z,41.55
2022-09-21T13:08:50.906Z,41.01
2022-09-21T13:14:00.563Z,40.84
2022-09-21T13:19:01.460Z,40.84
2022-09-21T13:24:04.019Z,41.12
2022-09-21T13:28:57.238Z,40.92
2022-09-21T13:34:20.544Z,40.74
2022-09-21T13:39:22.328Z,41.04
2022-09-21T13:44:58.152Z,40.83
2022-09-21T13:50:00.609Z,40.91
2022-09-21T13:55:05.931Z,40.46
2022-09-21T14:00:07.535Z,40.46
2022-09-21T14:05:47.009Z,40.50
2022-09-21T14:10:39.843Z,39.67
2022-09-21T14:15:39.602Z,39.55
2022-09-21T14:20:39.800Z,38.81
2022-09-21T14:25:54.042Z,39.20
2022-09-21T14:30:56.280Z,38.95
2022-09-21T14:35:51.912Z,40.18
2022-09-21T14:40:50.862Z,40.36
2022-09-21T14:45:59.856Z,40.75
2022-09-21T14:51:04.309Z,40.60
2022-09-21T14:56:11.486Z,40.53
2022-09-21T15:01:36.634Z,40.64
2022-09-21T15:06:55.688Z,39.36
2022-09-21T15:12:00.686Z,40.60
2022-09-21T15:16:54.431Z,40.15
2022-09-21T15:22:16.784Z,40.63
2022-09-21T15:27:15.832Z,40.74
2022-09-21T15:32:09.679Z,40.49
2022-09-21T15:37:17.424Z,41.06
2022-09-21T15:42:10.019Z,40.69
2022-09-21T15:47:05.286Z,41.40
2022-09-21T15:52:18.191Z,40.72
2022-09-21T15:57:29.643Z,41.42
2022-09-21T16:02:26.347Z,41.42
2022-09-21T16:07:37.210Z,41.37
2022-09-21T16:12:45.950Z,41.50
2022-09-21T16:17:41.407Z,41.13
2022-09-21T16:22:51.819Z,40.69
2022-09-21T16:28:05.324Z,40.90
2022-09-21T16:33:01.104Z,40.70
2022-09-21T16:38:00.071Z,41.28
2022-09-21T16:42:55.381Z,41.00
2022-09-21T16:47:53.415Z,41.20
2022-09-21T16:52:52.314Z,41.28
2022-09-21T16:57:50.229Z,41.34
2022-09-21T17:02:47.697Z,41.86
2022-09-21T17:07:43.972Z,41.64
2022-09-21T17:12:42.692Z,41.67
2022-09-21T17:17:37.230Z,41.49
2022-09-21T17:22:34.489Z,41.30
2022-09-21T17:27:29.870Z,41.61
2022-09-21T17:37:16.914Z,41.55
2022-09-21T17:42:19.223Z,41.59
2022-09-21T17:47:23.995Z,41.80
2022-09-21T17:52:39.663Z,41.85
2022-09-21T17:57:32.531Z,41.55
2022-09-21T18:02:27.188Z,39.41
2022-09-21T18:07:22.002Z,38.85
2022-09-21T18:13:01.712Z,38.65
2022-09-21T18:18:04.272Z,38.09
2022-09-21T18:23:00.052Z,37.04
2022-09-21T18:28:15.854Z,35.73
2022-09-21T18:33:25.238Z,34.46
2022-09-21T18:38:21.298Z,34.83
2022-09-21T18:43:42.286Z,35.54
2022-09-21T18:48:59.163Z,35.46
2022-09-21T18:53:57.316Z,34.94
2022-09-21T18:58:51.592Z,34.60
2022-09-21T19:03:46.644Z,34.00
2022-09-21T19:08:50.049Z,34.17
2022-09-21T19:13:58.132Z,34.47
2022-09-21T19:18:57.043Z,34.77
2022-09-21T19:23:56.386Z,34.96
2022-09-21T19:29:36.089Z,34.59
2022-09-21T19:34:31.318Z,35.28
2022-09-21T19:39:27.086Z,35.12
2022-09-21T19:44:47.626Z,34.84
2022-09-21T19:49:45.667Z,34.80
2022-09-21T19:54:58.862Z,35.36
2022-09-21T19:59:52.287Z,34.93
2022-09-21T20:04:59.728Z,35.16
2022-09-21T20:10:00.861Z,35.14
2022-09-21T20:15:01.040Z,35.00
2022-09-21T20:19:53.830Z,34.77
2022-09-21T20:24:49.970Z,35.35
2022-09-21T20:29:46.747Z,35.56
2022-09-21T20:34:44.405Z,35.55
2022-09-21T20:39:38.607Z,35.92
2022-09-21T20:44:31.992Z,35.43
2022-09-21T20:49:25.456Z,36.34
2022-09-21T20:54:18.675Z,36.35
2022-09-21T20:59:12.761Z,35.87
2022-09-21T21:04:06.784Z,36.45
2022-09-21T21:09:02.766Z,36.39
2022-09-21T21:13:56.709Z,36.60
2022-09-21T21:18:50.480Z,36.94
2022-09-21T21:24:02.672Z,36.87
2022-09-21T21:28:56.322Z,37.31
2022-09-21T21:33:50.095Z,37.17
2022-09-21T21:38:44.123Z,37.84
2022-09-21T21:43:42.321Z,38.14
2022-09-21T21:48:42.544Z,37.98
2022-09-21T21:53:38.897Z,37.88
2022-09-21T21:58:34.254Z,37.83
2022-09-21T22:03:29.233Z,38.34
2022-09-21T22:08:22.803Z,38.58
2022-09-21T22:13:19.133Z,38.26
2022-09-21T22:18:13.163Z,38.54
2022-09-21T22:23:13.213Z,38.70
2022-09-21T22:28:07.677Z,38.32
2022-09-21T22:33:01.193Z,38.86
2022-09-21T22:37:56.661Z,38.90
2022-09-21T22:42:49.434Z,38.91
2022-09-21T22:47:44.405Z,39.02
2022-09-21T22:52:38.455Z,38.44
2022-09-21T22:57:32.656Z,38.60
2022-09-21T23:02:26.199Z,38.87
2022-09-21T23:07:20.239Z,38.52
2022-09-21T23:12:13.068Z,39.10
2022-09-21T23:17:06.024Z,39.13
2022-09-21T23:21:59.571Z,39.23
2022-09-21T23:26:53.635Z,38.80
2022-09-21T23:31:46.589Z,38.97
2022-09-21T23:36:40.693Z,38.88
2022-09-21T23:41:36.904Z,38.78
2022-09-21T23:46:33.485Z,38.56
2022-09-21T23:51:27.167Z,39.10
2022-09-21T23:56:22.666Z,38.51
